createdAt,value
2018-04-30T00:00:31.988Z,13.39
2018-04-30T00:03:01.012Z,13.38
2018-04-30T00:05:29.971Z,13.37
2018-04-30T00:07:59.101Z,13.40
2018-04-30T00:10:29.087Z,13.39
2018-04-30T00:12:58.389Z,13.37
2018-04-30T00:15:28.097Z,13.34
2018-04-30T00:17:57.184Z,13.30
2018-04-30T00:20:26.100Z,13.34
2018-04-30T00:22:56.002Z,13.33
2018-04-30T00:25:24.895Z,13.39
2018-04-30T00:27:53.891Z,13.36
2018-04-30T00:30:23.737Z,13.30
2018-04-30T00:32:53.249Z,13.31
2018-04-30T00:35:22.189Z,13.40
2018-04-30T00:37:51.124Z,13.40
2018-04-30T00:40:20.093Z,13.39
2018-04-30T00:42:49.087Z,13.31
2018-04-30T00:45:18.176Z,13.28
2018-04-30T00:47:47.378Z,13.26
2018-04-30T00:50:16.278Z,13.27
2018-04-30T00:52:45.980Z,13.19
2018-04-30T00:55:15.069Z,13.18
2018-04-30T00:57:44.077Z,13.23
2018-04-30T01:00:13.152Z,13.27
2018-04-30T01:02:42.066Z,13.18
2018-04-30T01:05:11.153Z,13.19
2018-04-30T01:07:40.253Z,13.24
2018-04-30T01:10:09.248Z,13.23
2018-04-30T01:12:38.093Z,13.26
2018-04-30T01:15:07.273Z,13.29
2018-04-30T01:17:36.212Z,13.29
2018-04-30T01:20:05.148Z,13.36
2018-04-30T01:22:34.776Z,13.37
2018-04-30T01:25:03.830Z,13.41
2018-04-30T01:27:32.702Z,13.43
2018-04-30T01:30:01.722Z,13.46
2018-04-30T01:32:30.716Z,13.50
2018-04-30T01:34:59.716Z,13.47
2018-04-30T01:37:28.701Z,13.45
2018-04-30T01:39:57.582Z,13.48
2018-04-30T01:42:26.570Z,13.51
2018-04-30T01:47:30.153Z,13.54
2018-04-30T01:49:59.195Z,13.49
2018-04-30T01:52:29.941Z,13.51
2018-04-30T01:54:58.877Z,13.47
2018-04-30T01:57:27.826Z,13.43
2018-04-30T01:59:57.776Z,13.44
2018-04-30T02:02:26.727Z,13.39
2018-04-30T02:04:55.561Z,13.31
2018-04-30T02:07:24.520Z,13.30
2018-04-30T02:09:53.799Z,13.27
2018-04-30T02:12:22.810Z,13.25
2018-04-30T02:14:54.389Z,13.25
2018-04-30T02:17:23.356Z,13.20
2018-04-30T02:19:57.173Z,13.19
2018-04-30T02:22:25.930Z,13.16
2018-04-30T02:24:54.831Z,13.13
2018-04-30T02:27:23.719Z,13.08
2018-04-30T02:29:52.700Z,13.07
2018-04-30T02:32:23.035Z,13.07
2018-04-30T02:34:52.961Z,12.99
2018-04-30T02:37:21.825Z,13.09
2018-04-30T02:39:50.729Z,13.04
2018-04-30T02:42:21.409Z,13.02
2018-04-30T02:44:50.358Z,13.03
2018-04-30T02:47:19.249Z,12.99
2018-04-30T02:49:48.145Z,12.99
2018-04-30T02:52:17.234Z,13.00
2018-04-30T02:54:46.133Z,12.99
2018-04-30T02:57:16.761Z,13.01
2018-04-30T02:59:45.791Z,13.03
2018-04-30T03:02:14.852Z,13.00
2018-04-30T03:04:44.052Z,13.03
2018-04-30T03:07:12.878Z,13.06
2018-04-30T03:09:41.738Z,13.08
2018-04-30T03:14:47.611Z,13.19
2018-04-30T03:17:16.499Z,13.20
2018-04-30T03:19:45.595Z,13.26
2018-04-30T03:24:49.005Z,13.61
2018-04-30T03:27:18.008Z,13.90
2018-04-30T03:29:46.891Z,14.48
2018-04-30T03:32:16.744Z,15.01
2018-04-30T03:34:46.653Z,15.72
2018-04-30T03:37:15.717Z,16.06
2018-04-30T03:39:45.633Z,16.24
2018-04-30T03:42:14.528Z,16.31
2018-04-30T03:44:44.011Z,16.73
2018-04-30T03:47:13.028Z,16.91
2018-04-30T03:49:41.998Z,16.96
2018-04-30T03:52:11.018Z,17.30
2018-04-30T03:57:14.185Z,17.68
2018-04-30T03:59:43.054Z,18.40
2018-04-30T04:02:24.093Z,18.52
2018-04-30T04:05:16.574Z,18.90
2018-04-30T04:07:46.298Z,18.11
2018-04-30T04:10:15.235Z,18.59
2018-04-30T04:12:44.350Z,17.68
2018-04-30T04:15:13.433Z,18.42
2018-04-30T04:17:42.426Z,18.76
2018-04-30T04:20:11.522Z,18.85
2018-04-30T04:22:42.408Z,19.02
2018-04-30T04:25:11.366Z,19.61
2018-04-30T04:27:40.351Z,19.63
2018-04-30T04:30:11.836Z,20.43
2018-04-30T04:32:41.324Z,20.23
2018-04-30T04:35:10.202Z,19.51
2018-04-30T04:37:39.298Z,18.40
2018-04-30T04:40:08.298Z,18.24
2018-04-30T04:42:37.390Z,17.88
2018-04-30T04:45:12.848Z,17.76
2018-04-30T04:47:41.801Z,17.56
2018-04-30T04:50:11.603Z,17.13
2018-04-30T04:52:42.458Z,16.94
2018-04-30T04:55:11.420Z,16.93
2018-04-30T04:57:40.291Z,16.76
2018-04-30T05:00:09.246Z,16.70
2018-04-30T05:02:38.290Z,16.34
2018-04-30T05:05:07.286Z,16.41
2018-04-30T05:07:37.101Z,16.40
2018-04-30T05:10:05.891Z,16.47
2018-04-30T05:12:38.116Z,16.09
2018-04-30T05:15:07.290Z,16.43
2018-04-30T05:17:37.201Z,16.47
2018-04-30T05:29:11.964Z,17.09
2018-04-30T05:31:40.843Z,17.00
2018-04-30T05:34:09.908Z,17.56
2018-04-30T05:36:38.842Z,17.93
2018-04-30T05:39:07.943Z,18.00
2018-04-30T05:41:36.874Z,17.77
2018-04-30T05:44:05.871Z,17.86
2018-04-30T05:46:34.963Z,17.84
2018-04-30T05:49:03.857Z,18.26
2018-04-30T05:51:32.862Z,18.46
2018-04-30T05:54:01.741Z,18.94
2018-04-30T05:56:30.604Z,18.89
2018-04-30T05:59:00.475Z,18.86
2018-04-30T06:01:29.437Z,19.05
2018-04-30T06:03:58.432Z,19.05
2018-04-30T06:06:27.418Z,18.97
2018-04-30T06:08:56.421Z,18.86
2018-04-30T06:11:25.425Z,19.32
2018-04-30T06:13:54.314Z,20.04
2018-04-30T06:16:23.205Z,21.88
2018-04-30T06:18:52.093Z,23.09
2018-04-30T06:21:20.981Z,22.15
2018-04-30T06:23:49.981Z,21.20
2018-04-30T06:26:18.971Z,21.27
2018-04-30T06:28:48.814Z,20.94
2018-04-30T06:31:17.566Z,21.02
2018-04-30T06:33:46.442Z,22.06
2018-04-30T06:36:15.407Z,22.18
2018-04-30T06:38:44.351Z,22.70
2018-04-30T06:41:13.221Z,23.38
2018-04-30T06:43:42.950Z,22.89
2018-04-30T06:46:12.739Z,22.61
2018-04-30T06:48:41.828Z,22.61
2018-04-30T06:51:11.658Z,23.46
2018-04-30T06:53:40.545Z,22.98
2018-04-30T06:56:09.396Z,22.12
2018-04-30T06:58:39.554Z,21.09
2018-04-30T07:01:08.650Z,21.90
2018-04-30T07:03:37.501Z,23.50
2018-04-30T07:06:07.229Z,23.62
2018-04-30T07:08:36.040Z,23.48
2018-04-30T07:11:04.835Z,23.71
2018-04-30T07:13:35.364Z,24.38
2018-04-30T07:16:04.349Z,24.24
2018-04-30T07:18:33.119Z,25.18
2018-04-30T07:21:01.937Z,23.66
2018-04-30T07:23:30.785Z,23.91
2018-04-30T07:25:59.722Z,23.33
2018-04-30T07:28:28.717Z,24.00
2018-04-30T07:30:57.604Z,24.65
2018-04-30T07:33:26.547Z,24.75
2018-04-30T07:35:56.412Z,25.32
2018-04-30T07:38:25.407Z,25.07
2018-04-30T07:40:54.196Z,23.16
2018-04-30T07:43:24.623Z,22.78
2018-04-30T07:45:53.617Z,22.38
2018-04-30T07:48:22.727Z,21.29
2018-04-30T07:50:51.709Z,21.04
2018-04-30T07:53:20.632Z,20.56
2018-04-30T07:55:49.530Z,20.31
2018-04-30T07:58:18.901Z,20.16
2018-04-30T08:00:47.785Z,19.44
2018-04-30T08:03:16.643Z,19.66
2018-04-30T08:08:20.101Z,19.55
2018-04-30T08:10:48.952Z,19.30
2018-04-30T08:13:18.900Z,19.42
2018-04-30T08:15:47.687Z,19.43
2018-04-30T08:18:16.585Z,19.45
2018-04-30T08:20:45.619Z,19.26
2018-04-30T08:23:14.476Z,19.34
2018-04-30T08:25:44.207Z,19.21
2018-04-30T08:28:13.145Z,19.15
2018-04-30T08:30:42.038Z,19.17
2018-04-30T08:33:10.955Z,18.99
2018-04-30T08:35:39.850Z,18.89
2018-04-30T08:38:08.640Z,18.70
2018-04-30T08:40:37.735Z,18.91
2018-04-30T08:43:09.285Z,18.79
2018-04-30T08:45:38.310Z,18.69
2018-04-30T08:48:07.172Z,18.84
2018-04-30T08:50:38.624Z,18.68
2018-04-30T08:53:07.549Z,18.70
2018-04-30T08:55:36.434Z,18.68
2018-04-30T08:58:05.543Z,18.82
2018-04-30T09:00:34.381Z,19.02
2018-04-30T09:03:03.234Z,19.20
2018-04-30T09:05:32.224Z,19.14
2018-04-30T09:08:01.109Z,18.67
2018-04-30T09:10:29.992Z,18.58
2018-04-30T09:13:02.674Z,18.79
2018-04-30T09:15:31.668Z,18.66
2018-04-30T09:18:00.458Z,18.80
2018-04-30T09:20:30.188Z,18.95
2018-04-30T09:22:58.985Z,19.05
2018-04-30T09:25:27.744Z,18.90
2018-04-30T09:33:04.559Z,18.95
2018-04-30T09:35:33.684Z,18.83
2018-04-30T09:38:02.455Z,19.11
2018-04-30T09:43:06.811Z,19.10
2018-04-30T09:45:35.777Z,19.05
2018-04-30T09:48:04.667Z,18.97
2018-04-30T09:50:33.660Z,18.91
2018-04-30T09:53:02.942Z,19.11
2018-04-30T09:55:31.965Z,19.10
2018-04-30T09:58:00.964Z,18.94
2018-04-30T10:00:29.741Z,19.18
2018-04-30T10:02:58.629Z,19.12
2018-04-30T10:05:29.427Z,19.15
2018-04-30T10:07:58.465Z,19.13
2018-04-30T10:10:27.363Z,19.23
2018-04-30T10:12:56.244Z,19.34
2018-04-30T10:15:25.142Z,19.09
2018-04-30T10:17:54.244Z,18.92
2018-04-30T10:20:24.051Z,18.85
2018-04-30T10:22:52.988Z,18.99
2018-04-30T10:25:21.810Z,19.15
2018-04-30T10:27:50.824Z,19.27
2018-04-30T10:30:19.616Z,19.40
2018-04-30T10:32:48.618Z,19.34
2018-04-30T10:35:18.556Z,19.23
2018-04-30T10:37:48.586Z,19.15
2018-04-30T10:40:17.368Z,19.15
2018-04-30T10:42:46.359Z,19.35
2018-04-30T10:45:15.222Z,19.36
2018-04-30T10:47:44.931Z,19.19
2018-04-30T10:50:13.829Z,19.17
2018-04-30T10:52:42.819Z,19.00
2018-04-30T10:55:12.567Z,18.99
2018-04-30T10:57:41.555Z,19.22
2018-04-30T11:00:10.520Z,19.10
2018-04-30T11:02:39.380Z,19.28
2018-04-30T11:05:08.201Z,19.44
2018-04-30T11:07:37.092Z,19.49
2018-04-30T11:10:05.986Z,19.55
2018-04-30T11:12:34.868Z,19.65
2018-04-30T11:15:04.481Z,19.63
2018-04-30T11:17:33.886Z,19.72
2018-04-30T11:20:05.472Z,19.59
2018-04-30T11:22:34.287Z,19.27
2018-04-30T11:25:03.094Z,19.35
2018-04-30T11:27:34.582Z,19.55
2018-04-30T11:30:03.561Z,19.64
2018-04-30T11:32:32.496Z,19.76
2018-04-30T11:35:01.450Z,19.91
2018-04-30T11:37:30.340Z,19.99
2018-04-30T11:39:59.518Z,20.01
2018-04-30T11:42:28.406Z,19.96
2018-04-30T11:44:57.326Z,19.90
2018-04-30T11:47:26.165Z,19.99
2018-04-30T11:49:55.931Z,19.74
2018-04-30T11:52:24.824Z,19.83
2018-04-30T11:54:53.621Z,19.77
2018-04-30T11:59:57.419Z,19.59
2018-04-30T12:02:26.325Z,19.53
2018-04-30T12:04:57.887Z,19.52
2018-04-30T12:07:26.874Z,19.52
2018-04-30T12:09:55.769Z,19.63
2018-04-30T12:12:24.557Z,19.59
2018-04-30T12:14:53.480Z,19.45
2018-04-30T12:17:22.339Z,19.43
2018-04-30T12:19:51.944Z,19.51
2018-04-30T12:22:20.840Z,19.38
2018-04-30T12:24:49.725Z,19.36
2018-04-30T12:27:21.285Z,19.18
2018-04-30T12:29:50.427Z,19.18
2018-04-30T12:32:19.478Z,18.97
2018-04-30T12:34:48.643Z,19.02
2018-04-30T12:37:17.823Z,19.17
2018-04-30T12:39:47.187Z,19.05
2018-04-30T12:42:16.928Z,19.00
2018-04-30T12:44:45.886Z,18.90
2018-04-30T12:47:14.813Z,19.01
2018-04-30T12:49:44.460Z,18.73
2018-04-30T12:52:13.375Z,18.60
2018-04-30T12:54:42.267Z,18.72
2018-04-30T12:59:47.832Z,18.40
2018-04-30T13:02:16.777Z,18.51
2018-04-30T13:04:45.822Z,18.37
2018-04-30T13:09:49.759Z,18.54
2018-04-30T13:12:18.833Z,18.46
2018-04-30T13:14:48.255Z,18.19
2018-04-30T13:17:18.011Z,18.28
2018-04-30T13:19:46.958Z,18.41
2018-04-30T13:22:15.964Z,18.41
2018-04-30T13:24:45.861Z,18.43
2018-04-30T13:27:15.379Z,18.73
2018-04-30T13:29:44.158Z,18.70
2018-04-30T13:32:15.723Z,18.66
2018-04-30T13:34:44.603Z,18.68
2018-04-30T13:37:13.358Z,18.64
2018-04-30T13:39:43.114Z,18.64
2018-04-30T13:42:12.863Z,18.71
2018-04-30T13:44:41.812Z,18.80
2018-04-30T13:47:10.703Z,18.59
2018-04-30T13:49:39.628Z,18.65
2018-04-30T13:52:08.600Z,18.74
2018-04-30T13:57:11.291Z,18.82
2018-04-30T13:59:40.119Z,18.83
2018-04-30T14:02:09.069Z,18.71
2018-04-30T14:04:37.963Z,18.68
2018-04-30T14:07:07.770Z,18.62
2018-04-30T14:09:37.926Z,18.55
2018-04-30T14:12:06.689Z,18.39
2018-04-30T14:14:35.576Z,18.28
2018-04-30T14:17:06.207Z,18.23
2018-04-30T14:19:35.217Z,18.09
2018-04-30T14:22:04.202Z,18.25
2018-04-30T14:24:33.095Z,18.19
2018-04-30T14:27:01.982Z,18.26
2018-04-30T14:29:30.982Z,18.37
2018-04-30T14:32:06.106Z,18.20
2018-04-30T14:34:34.892Z,18.18
2018-04-30T14:37:03.796Z,18.12
2018-04-30T14:39:33.529Z,17.83
2018-04-30T17:38:52.582Z,15.27
2018-04-30T17:41:22.305Z,15.25
2018-04-30T17:43:51.229Z,15.29
2018-04-30T17:46:21.847Z,15.32
2018-04-30T17:48:51.667Z,15.36
2018-04-30T17:51:20.502Z,15.28
2018-04-30T17:53:51.139Z,15.24
2018-04-30T17:56:19.993Z,15.16
2018-04-30T17:58:48.899Z,15.10
2018-04-30T18:01:18.651Z,15.08
2018-04-30T18:03:47.506Z,15.13
2018-04-30T18:06:17.103Z,15.13
2018-04-30T18:08:45.992Z,15.11
2018-04-30T18:11:14.823Z,15.10
2018-04-30T18:13:44.791Z,15.11
2018-04-30T18:16:16.260Z,15.12
2018-04-30T18:18:45.645Z,15.11
2018-04-30T18:21:14.533Z,15.11
2018-04-30T18:23:43.527Z,15.13
2018-04-30T18:26:12.426Z,15.03
2018-04-30T18:28:42.129Z,15.03
2018-04-30T18:31:11.235Z,14.98
2018-04-30T18:33:42.719Z,15.00
2018-04-30T18:38:45.490Z,14.95
2018-04-30T18:41:14.324Z,14.97
2018-04-30T18:43:43.473Z,14.94
2018-04-30T18:46:13.078Z,14.97
2018-04-30T18:48:42.188Z,14.94
2018-04-30T18:53:45.000Z,14.81
2018-04-30T18:56:14.002Z,14.82
2018-04-30T18:58:44.721Z,14.80
2018-04-30T19:01:13.857Z,14.85
2018-04-30T19:03:42.795Z,14.79
2018-04-30T19:06:11.627Z,14.83
2018-04-30T19:08:40.463Z,14.81
2018-04-30T19:11:09.395Z,14.77
2018-04-30T19:13:39.982Z,14.71
2018-04-30T19:16:09.941Z,14.66
2018-04-30T19:18:39.608Z,14.66
2018-04-30T19:21:14.250Z,14.61
2018-04-30T19:23:43.095Z,14.63
2018-04-30T19:26:12.027Z,14.66
2018-04-30T19:28:41.021Z,14.69
2018-04-30T19:31:09.939Z,14.62
2018-04-30T19:33:39.832Z,14.59
2018-04-30T19:36:14.766Z,14.64
2018-04-30T19:38:43.732Z,14.61
2018-04-30T19:41:13.563Z,14.62
2018-04-30T19:43:42.679Z,14.60
2018-04-30T19:46:11.563Z,14.60
2018-04-30T19:48:40.395Z,14.62
2018-04-30T19:51:09.389Z,14.63
2018-04-30T19:53:38.288Z,14.60
2018-04-30T19:56:07.102Z,14.66
2018-04-30T19:58:38.612Z,14.64
2018-04-30T20:01:07.523Z,14.59
2018-04-30T20:03:37.640Z,14.65
2018-04-30T20:06:08.268Z,14.64
2018-04-30T20:08:37.167Z,14.57
2018-04-30T20:11:06.155Z,14.59
2018-04-30T20:13:36.470Z,14.51
2018-04-30T20:16:05.367Z,14.55
2018-04-30T20:18:34.106Z,14.57
2018-04-30T20:21:03.146Z,14.51
2018-04-30T20:23:32.196Z,14.52
2018-04-30T20:26:01.084Z,14.57
2018-04-30T20:28:30.048Z,14.50
2018-04-30T20:30:59.031Z,14.48
2018-04-30T20:33:33.072Z,14.50
2018-04-30T20:36:05.417Z,14.47
2018-04-30T20:38:35.232Z,14.46
2018-04-30T20:41:04.330Z,14.38
2018-04-30T20:43:33.927Z,14.43
2018-04-30T20:46:03.642Z,14.43
2018-04-30T20:48:32.536Z,14.43
2018-04-30T20:51:02.600Z,14.41
2018-04-30T20:53:31.491Z,14.41
2018-04-30T20:56:00.271Z,14.41
2018-04-30T20:58:28.974Z,14.35
2018-04-30T21:00:57.935Z,14.38
2018-04-30T21:03:26.831Z,14.37
2018-04-30T21:05:55.698Z,14.34
2018-04-30T21:08:24.593Z,14.31
2018-04-30T21:10:53.565Z,14.32
2018-04-30T21:13:22.579Z,14.33
2018-04-30T21:15:53.084Z,14.36
2018-04-30T21:18:21.897Z,14.38
2018-04-30T21:20:50.866Z,14.43
2018-04-30T21:23:22.352Z,14.38
2018-04-30T21:25:51.370Z,14.34
2018-04-30T21:28:20.334Z,14.36
2018-04-30T21:30:49.327Z,14.38
2018-04-30T21:33:18.217Z,14.42
2018-04-30T21:35:47.109Z,14.41
2018-04-30T21:38:17.859Z,14.39
2018-04-30T21:40:46.811Z,14.36
2018-04-30T21:43:15.737Z,14.32
2018-04-30T21:45:44.622Z,14.30
2018-04-30T21:48:13.611Z,14.33
2018-04-30T21:50:42.409Z,14.29
2018-04-30T21:53:11.434Z,14.29
2018-04-30T21:55:40.291Z,14.31
2018-04-30T21:58:09.186Z,14.29
2018-04-30T22:00:38.117Z,14.34
2018-04-30T22:03:07.012Z,14.31
2018-04-30T22:05:36.162Z,14.25
2018-04-30T22:08:09.266Z,14.26
2018-04-30T22:10:38.246Z,14.24
2018-04-30T22:13:07.141Z,14.17
2018-04-30T22:15:37.005Z,14.19
2018-04-30T22:18:05.831Z,14.20
2018-04-30T22:20:35.564Z,14.15
2018-04-30T22:23:06.597Z,14.08
2018-04-30T22:25:36.515Z,14.04
2018-04-30T22:28:05.505Z,14.00
2018-04-30T22:30:35.426Z,14.02
2018-04-30T22:33:04.411Z,14.04
2018-04-30T22:35:33.305Z,14.01
2018-04-30T22:38:03.221Z,13.94
2018-04-30T22:40:32.115Z,13.89
2018-04-30T22:43:01.114Z,13.85
2018-04-30T22:45:30.308Z,13.86
2018-04-30T22:48:00.119Z,13.86
2018-04-30T22:50:29.733Z,13.76
2018-04-30T22:58:06.964Z,13.79
2018-04-30T23:00:35.882Z,13.75
2018-04-30T23:03:04.835Z,13.63
2018-04-30T23:05:33.718Z,13.58
2018-04-30T23:08:02.831Z,13.59
2018-04-30T23:10:33.053Z,13.56
2018-04-30T23:13:01.870Z,13.56
2018-04-30T23:15:31.347Z,13.59
2018-04-30T23:18:00.347Z,13.73
2018-04-30T23:20:29.209Z,13.72
2018-04-30T23:22:58.110Z,13.67
2018-04-30T23:25:28.861Z,13.67
2018-04-30T23:27:57.849Z,13.62
2018-04-30T23:30:26.846Z,13.56
2018-04-30T23:32:58.712Z,13.51
2018-04-30T23:35:28.468Z,13.45
2018-04-30T23:37:57.346Z,13.40
2018-04-30T23:40:26.392Z,13.40
2018-04-30T23:42:55.298Z,13.39
2018-04-30T23:45:24.275Z,13.38
2018-04-30T23:47:53.391Z,13.34
2018-04-30T23:50:23.305Z,13.26
2018-04-30T23:52:52.096Z,13.18
2018-04-30T23:57:55.516Z,13.11
